createdAt,value
2022-11-03T03:34:43.497Z,20.48
2022-11-03T03:39:46.849Z,31.85
2022-11-03T03:42:17.363Z,20.88
2022-11-03T03:44:47.484Z,18.17
2022-11-03T03:47:20.241Z,22.88
2022-11-03T03:49:48.150Z,23.90
2022-11-03T03:52:16.895Z,23.02
2022-11-03T03:54:44.707Z,20.02
2022-11-03T03:57:16.895Z,24.88
2022-11-03T03:59:44.947Z,26.80
2022-11-03T04:02:13.222Z,22.42
2022-11-03T04:04:41.185Z,21.25
2022-11-03T04:07:26.991Z,22.30
2022-11-03T04:09:54.892Z,41.53
2022-11-03T04:12:41.755Z,29.77
2022-11-03T04:15:30.582Z,40.13
2022-11-03T04:18:15.707Z,44.88
2022-11-03T04:21:01.529Z,58.42
2022-11-03T04:23:30.657Z,42.22
2022-11-03T04:25:58.963Z,37.35
2022-11-03T04:28:28.254Z,66.20
2022-11-03T04:30:59.039Z,72.53
2022-11-03T04:35:58.970Z,37.70
2022-11-03T04:38:29.031Z,54.10
2022-11-03T04:40:59.602Z,76.57
2022-11-03T04:43:35.435Z,64.40
2022-11-03T04:46:03.757Z,55.85
2022-11-03T04:48:31.939Z,33.78
2022-11-03T04:51:01.990Z,27.70
2022-11-03T04:53:33.915Z,27.55
2022-11-03T04:56:07.270Z,27.02
2022-11-03T05:01:11.297Z,50.15
2022-11-03T05:03:40.546Z,30.02
2022-11-03T05:06:14.812Z,30.90
2022-11-03T05:08:43.954Z,34.05
2022-11-03T05:11:18.874Z,38.83
2022-11-03T05:13:48.556Z,38.28
2022-11-03T05:16:17.365Z,48.05
2022-11-03T05:18:47.790Z,63.35
2022-11-03T05:21:18.970Z,52.95
2022-11-03T05:23:49.694Z,44.08
2022-11-03T05:26:21.166Z,80.15
2022-11-03T05:28:53.845Z,64.05
2022-11-03T05:31:27.078Z,63.10
2022-11-03T05:33:58.307Z,57.42
2022-11-03T05:36:29.154Z,53.80
2022-11-03T05:38:59.797Z,67.85
2022-11-03T05:41:29.987Z,48.08
2022-11-03T05:44:02.431Z,45.80
2022-11-03T05:46:32.902Z,58.08
2022-11-03T05:51:39.132Z,53.75
2022-11-03T05:54:09.221Z,72.00
2022-11-03T05:56:37.096Z,32.10
2022-11-03T05:59:06.430Z,77.75
2022-11-03T06:01:36.963Z,47.15
2022-11-03T06:04:16.248Z,54.05
2022-11-03T06:06:44.168Z,63.13
2022-11-03T06:11:45.127Z,59.70
2022-11-03T06:14:22.915Z,55.85
2022-11-03T06:16:53.897Z,47.20
2022-11-03T06:19:28.151Z,36.72
2022-11-03T06:21:58.658Z,51.35
2022-11-03T06:24:31.921Z,47.88
2022-11-03T06:27:00.098Z,55.28
2022-11-03T06:29:33.024Z,59.88
2022-11-03T06:32:00.879Z,119.18
2022-11-03T06:34:38.132Z,88.10
2022-11-03T06:37:20.878Z,86.90
2022-11-03T06:39:49.660Z,90.25
2022-11-03T06:42:20.701Z,77.03
2022-11-03T06:44:51.275Z,73.10
2022-11-03T06:47:24.099Z,80.88
2022-11-03T06:49:54.032Z,66.78
2022-11-03T06:52:28.236Z,66.63
2022-11-03T06:55:01.769Z,60.97
2022-11-03T06:57:35.276Z,65.50
2022-11-03T07:03:10.238Z,56.63
2022-11-03T07:05:39.095Z,58.75
2022-11-03T07:08:20.728Z,53.47
2022-11-03T07:13:20.937Z,69.82
2022-11-03T07:15:50.426Z,69.88
2022-11-03T07:18:23.580Z,52.63
2022-11-03T07:20:53.010Z,49.58
2022-11-03T07:23:25.559Z,57.67
2022-11-03T07:25:55.484Z,64.82
2022-11-03T07:28:27.537Z,43.15
2022-11-03T07:30:56.775Z,47.05
2022-11-03T07:33:27.614Z,41.13
2022-11-03T07:41:20.799Z,38.60
2022-11-03T07:44:02.036Z,35.42
2022-11-03T07:46:32.105Z,46.67
2022-11-03T07:49:02.122Z,46.03
2022-11-03T07:51:32.215Z,48.47
2022-11-03T07:54:04.708Z,50.53
2022-11-03T07:56:36.628Z,44.63
2022-11-03T07:59:12.897Z,42.63
2022-11-03T08:01:45.155Z,41.95
2022-11-03T08:09:16.313Z,51.22
2022-11-03T08:11:44.220Z,45.90
2022-11-03T08:14:12.085Z,50.75
2022-11-03T08:21:38.004Z,47.05
2022-11-03T08:24:06.742Z,50.05
2022-11-03T08:26:34.755Z,52.30
2022-11-03T08:29:02.598Z,35.70
2022-11-03T08:31:30.440Z,41.22
2022-11-03T08:33:58.372Z,41.28
2022-11-03T08:36:27.587Z,36.90
2022-11-03T08:38:55.447Z,37.20
2022-11-03T08:41:23.303Z,34.33
2022-11-03T08:43:51.112Z,30.60
2022-11-03T08:46:19.348Z,40.28
2022-11-03T08:48:47.579Z,27.77
2022-11-03T08:51:16.691Z,29.58
2022-11-03T08:53:46.488Z,40.92
2022-11-03T08:56:17.008Z,31.13
2022-11-03T08:58:47.452Z,40.80
2022-11-03T09:01:16.027Z,47.30
2022-11-03T09:03:44.687Z,39.60
2022-11-03T09:06:12.604Z,50.90
2022-11-03T09:11:29.711Z,39.38
2022-11-03T09:13:58.025Z,41.55
2022-11-03T09:16:26.673Z,46.63
2022-11-03T09:18:54.571Z,45.47
2022-11-03T09:21:22.728Z,32.20
2022-11-03T09:23:50.695Z,35.58
2022-11-03T09:26:19.054Z,33.58
2022-11-03T09:28:49.429Z,28.52
2022-11-03T09:31:17.422Z,32.08
2022-11-03T09:33:45.345Z,23.88
2022-11-03T09:36:13.215Z,22.45
2022-11-03T09:51:19.990Z,24.25
2022-11-03T09:53:48.519Z,23.58
2022-11-03T10:03:50.037Z,29.25
2022-11-03T10:06:18.276Z,25.13
2022-11-03T10:08:47.418Z,27.15
2022-11-03T10:16:21.609Z,28.70
2022-11-03T10:23:50.320Z,13.65
2022-11-03T10:26:20.213Z,15.52
2022-11-03T10:28:59.782Z,17.77
2022-11-03T10:31:35.848Z,22.00
2022-11-03T10:34:05.099Z,14.48
2022-11-03T10:36:35.041Z,16.05
2022-11-03T10:39:25.771Z,16.92
2022-11-03T10:41:58.580Z,13.98
2022-11-03T10:44:28.362Z,15.55
2022-11-03T10:47:01.636Z,15.68
2022-11-03T10:49:30.786Z,16.45
2022-11-03T10:52:09.366Z,16.38
2022-11-03T10:54:38.157Z,18.98
2022-11-03T10:57:06.365Z,21.60
2022-11-03T10:59:37.496Z,18.55
2022-11-03T11:02:16.978Z,16.77
2022-11-03T11:04:45.559Z,18.55
2022-11-03T11:07:20.774Z,15.60
2022-11-03T11:09:48.866Z,24.83
2022-11-03T11:12:19.288Z,26.27
2022-11-03T11:14:58.698Z,28.67
2022-11-03T11:17:52.599Z,30.70
2022-11-03T11:20:41.494Z,28.65
2022-11-03T11:23:52.975Z,33.17
2022-11-03T11:26:41.539Z,23.52
2022-11-03T11:29:42.161Z,27.33
2022-11-03T11:32:51.778Z,25.73
2022-11-03T11:36:08.001Z,31.40
2022-11-03T11:39:01.514Z,28.30
2022-11-03T11:42:07.102Z,28.20
2022-11-03T11:45:04.244Z,26.20
2022-11-03T11:47:35.074Z,29.55
2022-11-03T11:50:33.458Z,29.33
2022-11-03T11:53:15.058Z,25.25
2022-11-03T11:55:51.646Z,26.65
2022-11-03T11:58:27.871Z,24.45
2022-11-03T12:00:58.880Z,23.80
2022-11-03T12:03:33.743Z,23.58
2022-11-03T12:06:01.771Z,26.58
2022-11-03T12:08:31.427Z,24.67
2022-11-03T12:11:02.872Z,30.20
2022-11-03T12:13:53.109Z,28.42
2022-11-03T12:16:31.174Z,22.00
2022-11-03T12:19:19.466Z,20.67
2022-11-03T12:21:48.908Z,17.55
2022-11-03T12:24:38.191Z,21.85
2022-11-03T12:27:21.370Z,27.73
2022-11-03T12:29:49.422Z,17.90
2022-11-03T12:32:32.618Z,18.60
2022-11-03T12:35:02.213Z,20.77
2022-11-03T12:37:30.068Z,17.65
2022-11-03T12:39:57.955Z,24.00
2022-11-03T12:42:27.251Z,22.05
2022-11-03T12:44:55.911Z,24.23
2022-11-03T12:47:23.818Z,23.83
2022-11-03T12:49:51.610Z,23.13
2022-11-03T12:52:19.507Z,22.08
2022-11-03T12:54:47.380Z,16.38
2022-11-03T12:57:15.301Z,18.55
2022-11-03T12:59:44.495Z,22.45
2022-11-03T13:02:12.815Z,21.15
2022-11-03T13:04:40.976Z,25.30
2022-11-03T13:07:08.810Z,22.02
2022-11-03T13:09:36.965Z,19.35
2022-11-03T13:12:22.722Z,26.80
2022-11-03T13:14:52.229Z,19.83
2022-11-03T13:17:20.245Z,23.77
2022-11-03T13:19:54.355Z,18.83
2022-11-03T13:22:22.671Z,25.38
2022-11-03T13:24:50.595Z,18.85
2022-11-03T13:27:18.475Z,17.13
2022-11-03T13:29:46.676Z,14.73
2022-11-03T13:32:15.975Z,17.75
2022-11-03T13:34:43.938Z,15.30
2022-11-03T13:37:11.846Z,13.57
2022-11-03T13:39:40.036Z,13.48
2022-11-03T13:42:07.896Z,17.38
2022-11-03T13:44:35.788Z,12.90
2022-11-03T13:47:03.921Z,20.35
2022-11-03T13:52:21.844Z,16.17
2022-11-03T14:00:26.318Z,10.63
2022-11-03T14:05:43.363Z,14.63
2022-11-03T14:08:11.384Z,14.68
2022-11-03T14:10:39.463Z,12.45
2022-11-03T14:13:06.448Z,16.05
2022-11-03T14:15:35.102Z,12.68
2022-11-03T14:18:02.884Z,16.75
2022-11-03T14:20:30.736Z,14.18
2022-11-03T14:22:59.948Z,16.40
2022-11-03T14:25:27.793Z,21.88
2022-11-03T14:27:55.703Z,19.20
2022-11-03T14:30:23.598Z,18.10
2022-11-03T14:32:59.420Z,17.25
2022-11-03T14:35:28.084Z,17.60
2022-11-03T14:37:56.169Z,14.13
2022-11-03T14:40:43.828Z,14.02
2022-11-03T14:43:12.268Z,17.77
2022-11-03T14:45:42.584Z,12.88
2022-11-03T14:48:10.858Z,16.33
2022-11-03T14:50:38.999Z,16.30
2022-11-03T14:53:08.550Z,14.30
2022-11-03T14:55:38.409Z,15.63
2022-11-03T14:58:06.971Z,14.27
2022-11-03T15:00:35.842Z,14.40
2022-11-03T15:03:04.616Z,14.30
2022-11-03T15:05:48.168Z,11.80
2022-11-03T15:08:19.888Z,13.75
2022-11-03T15:10:49.408Z,20.50
2022-11-03T15:13:17.496Z,14.30
2022-11-03T15:15:46.023Z,17.73
2022-11-03T15:18:13.980Z,11.93
2022-11-03T15:20:41.937Z,18.35
2022-11-03T15:25:59.344Z,10.02
2022-11-03T15:28:27.264Z,9.57
2022-11-03T15:30:55.108Z,12.20
2022-11-03T15:33:22.948Z,15.10
2022-11-03T15:35:50.913Z,12.90
2022-11-03T15:38:19.515Z,19.83
2022-11-03T15:40:47.821Z,15.70
2022-11-03T15:43:17.368Z,14.75
2022-11-03T15:45:45.250Z,12.70
2022-11-03T15:48:13.321Z,13.27
2022-11-03T15:50:41.849Z,12.27
2022-11-03T15:53:09.691Z,16.38
2022-11-03T15:55:37.801Z,15.63
2022-11-03T15:58:06.104Z,16.23
2022-11-03T16:00:37.785Z,15.25
2022-11-03T16:03:05.791Z,15.30
2022-11-03T16:05:33.814Z,20.25
2022-11-03T16:08:01.818Z,11.90
2022-11-03T16:10:30.136Z,18.17
2022-11-03T16:12:57.980Z,14.80
2022-11-03T16:15:26.070Z,15.13
2022-11-03T16:17:55.265Z,15.43
2022-11-03T16:20:27.247Z,22.13
2022-11-03T16:22:55.170Z,15.70
2022-11-03T16:25:23.064Z,19.95
2022-11-03T16:27:50.943Z,14.55
2022-11-03T16:30:19.394Z,16.42
2022-11-03T16:32:47.204Z,17.25
2022-11-03T16:35:16.582Z,19.13
2022-11-03T16:37:44.471Z,21.85
2022-11-03T16:40:18.754Z,18.05
2022-11-03T16:42:47.393Z,17.90
2022-11-03T16:45:20.455Z,15.45
2022-11-03T16:47:49.324Z,19.05
2022-11-03T16:50:19.648Z,20.70
2022-11-03T16:52:49.274Z,20.05
2022-11-03T16:55:18.878Z,17.77
2022-11-03T16:57:47.227Z,16.58
2022-11-03T17:00:17.050Z,19.15
2022-11-03T17:02:45.307Z,19.35
2022-11-03T17:05:14.181Z,19.85
2022-11-03T17:07:46.317Z,19.20
2022-11-03T17:10:16.684Z,28.35
2022-11-03T17:12:44.529Z,16.90
2022-11-03T17:15:12.858Z,18.88
2022-11-03T17:17:41.526Z,16.77
2022-11-03T17:20:10.968Z,16.38
2022-11-03T17:22:38.830Z,21.95
2022-11-03T17:25:10.816Z,21.70
2022-11-03T17:27:43.794Z,17.52
2022-11-03T17:30:33.177Z,22.17
2022-11-03T17:33:06.198Z,17.20
2022-11-03T17:35:39.301Z,22.17
2022-11-03T17:38:13.712Z,17.80
2022-11-03T17:40:44.775Z,23.83
2022-11-03T17:43:20.209Z,19.05
2022-11-03T17:45:48.555Z,21.98
2022-11-03T17:48:16.756Z,22.58
2022-11-03T17:50:48.125Z,19.15
2022-11-03T17:53:22.425Z,18.08
2022-11-03T17:56:23.341Z,16.25
2022-11-03T17:58:46.295Z,18.10
2022-11-03T18:01:23.125Z,19.15
2022-11-03T18:03:52.068Z,21.13
2022-11-03T18:06:21.449Z,16.88
2022-11-03T18:08:50.276Z,19.80
2022-11-03T18:11:44.389Z,19.25
2022-11-03T18:14:12.509Z,16.33
2022-11-03T18:16:40.875Z,23.77
2022-11-03T18:19:13.098Z,18.55
2022-11-03T18:21:41.285Z,19.05
2022-11-03T18:24:15.087Z,19.45
2022-11-03T18:26:44.549Z,18.25
2022-11-03T18:29:12.865Z,21.48
2022-11-03T18:31:43.106Z,22.35
2022-11-03T18:34:16.020Z,16.55
2022-11-03T18:36:44.684Z,20.13
2022-11-03T18:39:18.108Z,22.35
2022-11-03T18:41:47.843Z,22.25
2022-11-03T18:44:19.617Z,18.38
2022-11-03T18:46:47.867Z,16.38
2022-11-03T18:49:16.174Z,19.90
2022-11-03T18:51:47.818Z,21.13
2022-11-03T18:56:53.602Z,17.63
2022-11-03T18:59:24.312Z,22.00
2022-11-03T19:01:52.714Z,24.00
2022-11-03T19:04:21.171Z,19.35
2022-11-03T19:06:51.351Z,21.38
2022-11-03T19:09:22.170Z,24.52
2022-11-03T19:11:52.725Z,20.95
2022-11-03T19:14:26.498Z,20.27
2022-11-03T19:19:44.709Z,22.90
2022-11-03T19:22:14.198Z,16.98
2022-11-03T19:24:42.275Z,20.38
2022-11-03T19:27:17.295Z,18.60
2022-11-03T19:29:47.012Z,20.63
2022-11-03T19:32:20.743Z,21.55
2022-11-03T19:34:58.287Z,23.52
2022-11-03T19:37:29.863Z,22.20
2022-11-03T19:40:02.293Z,25.30
2022-11-03T19:42:33.157Z,19.90
2022-11-03T19:45:02.757Z,18.65
2022-11-03T19:47:34.741Z,18.52
2022-11-03T19:50:04.991Z,24.73
2022-11-03T19:52:34.663Z,17.75
2022-11-03T19:55:05.617Z,18.92
2022-11-03T19:57:36.914Z,17.58
2022-11-03T20:00:10.329Z,21.00
2022-11-03T20:02:39.161Z,19.98
2022-11-03T20:05:07.498Z,21.23
2022-11-03T20:07:35.493Z,19.25
2022-11-03T20:10:03.557Z,18.05
2022-11-03T20:12:32.221Z,18.65
2022-11-03T20:15:01.467Z,17.20
2022-11-03T20:17:29.329Z,17.40
2022-11-03T20:19:57.177Z,20.25
2022-11-03T20:22:30.196Z,18.45
2022-11-03T20:25:01.430Z,18.92
2022-11-03T20:27:29.289Z,20.60
2022-11-03T20:29:57.749Z,16.13
2022-11-03T20:32:27.130Z,17.00
2022-11-03T20:34:55.148Z,16.02
2022-11-03T20:37:22.994Z,22.38
2022-11-03T20:39:50.915Z,16.95
2022-11-03T20:42:22.371Z,18.20
2022-11-03T20:44:50.609Z,17.30
2022-11-03T20:47:19.320Z,18.92
2022-11-03T20:49:48.731Z,19.55
2022-11-03T20:52:17.425Z,16.95
2022-11-03T20:54:45.761Z,22.73
2022-11-03T20:57:15.160Z,16.77
2022-11-03T20:59:42.988Z,19.25
2022-11-03T21:02:13.089Z,22.08
2022-11-03T21:04:41.153Z,19.38
2022-11-03T21:07:13.802Z,21.55
2022-11-03T21:09:42.100Z,20.15
2022-11-03T21:12:13.388Z,24.00
2022-11-03T21:15:04.090Z,16.23
2022-11-03T21:17:49.166Z,19.33
2022-11-03T21:20:17.166Z,18.45
2022-11-03T21:22:52.262Z,15.10
2022-11-03T21:25:23.293Z,21.13
2022-11-03T21:27:51.767Z,18.80
2022-11-03T21:30:20.135Z,16.25
2022-11-03T21:32:48.165Z,17.77
2022-11-03T21:35:17.554Z,20.90
2022-11-03T21:37:47.187Z,15.52
2022-11-03T21:40:15.201Z,18.40
2022-11-03T21:43:00.626Z,22.25
2022-11-03T21:45:28.987Z,14.75
2022-11-03T21:48:14.867Z,20.15
2022-11-03T21:50:43.178Z,17.92
2022-11-03T21:53:12.825Z,17.65
2022-11-03T21:55:41.290Z,21.48
2022-11-03T21:58:09.389Z,16.60
2022-11-03T22:00:37.579Z,16.58
2022-11-03T22:03:05.912Z,18.42
2022-11-03T22:05:34.238Z,19.08
2022-11-03T22:08:02.093Z,20.08
2022-11-03T22:10:31.381Z,19.27
2022-11-03T22:12:59.234Z,19.65
2022-11-03T22:15:40.900Z,18.20
2022-11-03T22:18:09.174Z,22.00
2022-11-03T22:20:54.912Z,16.15
2022-11-03T22:23:40.188Z,17.13
2022-11-03T22:26:28.850Z,19.42
2022-11-03T22:29:12.727Z,20.13
2022-11-03T22:31:43.653Z,20.60
2022-11-03T22:34:29.231Z,19.23
2022-11-03T22:36:57.068Z,23.77
2022-11-03T22:39:42.467Z,17.77
2022-11-03T22:42:29.852Z,19.25
2022-11-03T22:45:15.295Z,21.90
2022-11-03T22:47:43.096Z,21.42
2022-11-03T22:50:11.134Z,17.90
2022-11-03T22:52:38.959Z,20.60
2022-11-03T22:55:06.113Z,19.75
2022-11-03T22:57:35.337Z,17.20
2022-11-03T23:00:05.645Z,23.23
2022-11-03T23:02:33.634Z,19.35
2022-11-03T23:05:01.790Z,22.60
2022-11-03T23:07:31.755Z,19.63
2022-11-03T23:10:04.785Z,18.55
2022-11-03T23:12:32.886Z,21.55
2022-11-03T23:15:34.097Z,17.85
2022-11-03T23:18:20.295Z,17.00
2022-11-03T23:21:06.231Z,20.33
2022-11-03T23:23:52.544Z,20.17
2022-11-03T23:26:20.529Z,21.13
2022-11-03T23:28:48.511Z,24.15
2022-11-03T23:31:18.382Z,19.05
2022-11-03T23:33:46.315Z,20.63
2022-11-03T23:36:15.712Z,21.40
2022-11-03T23:38:43.864Z,30.63
2022-11-03T23:41:14.089Z,22.65
2022-11-03T23:43:42.514Z,22.40
2022-11-03T23:46:29.218Z,20.00
2022-11-03T23:48:58.889Z,16.75
2022-11-03T23:51:28.643Z,13.55
2022-11-03T23:53:58.134Z,6.65
2022-11-03T23:56:45.114Z,9.50
2022-11-03T23:59:14.411Z,12.60
